Time;durP1;ratioP1;P1;durP2;ratioP2;P2;SDS_P1;SDS_P2;PMS_P1;PMS_P2;Temp;Humidity;BMP_temperature;BMP_pressure;BME280_temperature;BME280_humidity;BME280_pressure;Samples;Min_cycle;Max_cycle;Signal;HPM_P1;HPM_P2
2024/03/25 00:01:47;;;;;;;;;;;;;;;;;;4992268;28;19928;-68
2024/03/25 00:04:12;;;;;;;;;;;;;;;;;;5006065;28;20405;-67
2024/03/25 00:06:38;;;;;;;;;;;;;;;;;;5003458;28;19972;-67
2024/03/25 00:09:03;;;;;;;;;;;;;;;;;;5001504;28;20494;-68
2024/03/25 00:11:31;;;;;;;;;;;;;;;;;;4981086;28;20044;-67
2024/03/25 00:13:56;;;;;;;;;;;;;;;;;;4987823;28;19932;-69
2024/03/25 00:16:25;;;;;;;;;;;;;;;;;;4996976;28;19921;-67
2024/03/25 00:18:50;;;;;;;;;;;;;;;;;;5007834;28;19971;-68
2024/03/25 00:21:18;;;;;;;;;;;;;;;;;;4993989;28;21388;-67
2024/03/25 00:23:43;;;;;;;;;;;;;;;;;;5013843;28;19928;-66
2024/03/25 00:26:08;;;;;;;;;;;;;;;;;;4994306;28;20376;-67
2024/03/25 00:28:37;;;;;;;;;;;;;;;;;;4990640;28;19987;-67
2024/03/25 00:31:04;;;;;;;;;;;;;;;;;;5010650;28;19917;-68
2024/03/25 00:33:32;;;;;;;;;;;;;;;;;;5012790;28;20570;-67
2024/03/25 00:35:58;;;;;;;;;;;;;;;;;;5011092;28;19931;-68
2024/03/25 00:38:23;;;;;;;;;;;;;;;;;;5008769;28;19917;-68
2024/03/25 00:40:50;;;;;;;;;;;;;;;;;;4991871;28;19921;-68
2024/03/25 00:43:17;;;;;;;;;;;;;;;;;;5013016;28;20320;-67
2024/03/25 00:45:43;;;;;;;;;;;;;;;;;;5015076;28;19949;-67
2024/03/25 00:48:08;;;;;;;;;;;;;;;;;;4995008;28;19972;-68
2024/03/25 00:50:36;;;;;;;;;;;;;;;;;;5015961;28;19921;-67
2024/03/25 00:53:03;;;;;;;;;;;;;;;;;;5014581;28;19924;-67
2024/03/25 00:55:28;;;;;;;;;;;;;;;;;;4998553;28;20441;-68
2024/03/25 00:57:53;;;;;;;;;;;;;;;;;;5015673;28;19969;-67
2024/03/25 01:00:19;;;;;;;;;;;;;;;;;;4997607;28;19971;-66
2024/03/25 01:02:46;;;;;;;;;;;;;;;;;;5011675;28;20357;-66
2024/03/25 01:05:12;;;;;;;;;;;;;;;;;;5009469;28;19917;-66
2024/03/25 01:07:40;;;;;;;;;;;;;;;;;;5010907;28;20285;-66
2024/03/25 01:10:08;;;;;;;;;;;;;;;;;;5016403;28;19921;-67
2024/03/25 01:12:36;;;;;;;;;;;;;;;;;;4998239;28;20281;-67
2024/03/25 01:15:05;;;;;;;;;;;;;;;;;;5015597;28;19932;-67
2024/03/25 01:17:30;;;;;;;;;;;;;;;;;;4996998;28;19993;-66
2024/03/25 01:19:55;;;;;;;;;;;;;;;;;;4995188;28;20257;-66
2024/03/25 01:22:21;;;;;;;;;;;;;;;;;;4998058;28;19929;-67
2024/03/25 01:24:46;;;;;;;;;;;;;;;;;;4981059;28;19921;-67
2024/03/25 01:27:11;;;;;;;;;;;;;;;;;;4995821;28;19917;-68
2024/03/25 01:29:39;;;;;;;;;;;;;;;;;;5013993;28;20022;-67
2024/03/25 01:32:05;;;;;;;;;;;;;;;;;;4996855;28;19925;-66
2024/03/25 01:34:30;;;;;;;;;;;;;;;;;;4997189;28;19936;-68
2024/03/25 01:36:58;;;;;;;;;;;;;;;;;;5012776;28;19917;-67
2024/03/25 01:39:24;;;;;;;;;;;;;;;;;;5008363;28;20024;-67
2024/03/25 01:41:54;;;;;;;;;;;;;;;;;;5010834;28;19917;-67
2024/03/25 01:44:19;;;;;;;;;;;;;;;;;;4993238;28;19928;-66
2024/03/25 01:46:45;;;;;;;;;;;;;;;;;;5016773;28;21495;-67
2024/03/25 01:49:10;;;;;;;;;;;;;;;;;;5015329;28;19927;-67
2024/03/25 01:51:35;;;;;;;;;;;;;;;;;;4997017;28;20012;-66
2024/03/25 01:54:00;;;;;;;;;;;;;;;;;;5014010;28;19921;-67
2024/03/25 01:56:26;;;;;;;;;;;;;;;;;;5014189;28;19921;-66
2024/03/25 01:58:51;;;;;;;;;;;;;;;;;;5009695;28;19952;-67
2024/03/25 02:01:19;;;;;;;;;;;;;;;;;;4983335;28;20020;-67
2024/03/25 02:03:47;;;;;;;;;;;;;;;;;;4988312;28;19923;-67
2024/03/25 02:06:15;;;;;;;;;;;;;;;;;;4996425;28;19921;-67
2024/03/25 02:08:45;;;;;;;;;;;;;;;;;;4993361;28;20022;-67
2024/03/25 02:11:12;;;;;;;;;;;;;;;;;;4993683;28;20434;-66
2024/03/25 02:13:40;;;;;;;;;;;;;;;;;;5014173;28;19921;-66
2024/03/25 02:16:07;;;;;;;;;;;;;;;;;;5013964;28;19994;-66
2024/03/25 02:18:33;;;;;;;;;;;;;;;;;;5016922;28;20010;-67
2024/03/25 02:20:58;;;;;;;;;;;;;;;;;;4996464;28;19922;-67
2024/03/25 02:23:26;;;;;;;;;;;;;;;;;;5013742;28;19917;-66
2024/03/25 02:25:54;;;;;;;;;;;;;;;;;;5011935;28;20722;-65
2024/03/25 02:28:20;;;;;;;;;;;;;;;;;;4995464;28;19917;-65
2024/03/25 02:30:45;;;;;;;;;;;;;;;;;;4997218;28;19917;-65
2024/03/25 02:36:03;;;;;;;;;;;;;;;;;;5013604;28;20353;-66
2024/03/25 02:38:28;;;;;;;;;;;;;;;;;;4991197;28;20055;-66
2024/03/25 02:40:56;;;;;;;;;;;;;;;;;;5015389;28;20522;-67
2024/03/25 02:43:22;;;;;;;;;;;;;;;;;;5015206;28;19924;-68
2024/03/25 02:45:47;;;;;;;;;;;;;;;;;;5010021;28;20412;-66
2024/03/25 02:48:12;;;;;;;;;;;;;;;;;;5014615;28;20012;-66
2024/03/25 02:50:38;;;;;;;;;;;;;;;;;;5013524;28;19917;-67
2024/03/25 02:53:08;;;;;;;;;;;;;;;;;;4996007;28;19951;-67
2024/03/25 02:55:36;;;;;;;;;;;;;;;;;;5014088;28;19921;-67
2024/03/25 02:58:01;;;;;;;;;;;;;;;;;;4970470;28;19928;-67
2024/03/25 03:00:29;;;;;;;;;;;;;;;;;;4996949;28;20475;-67
2024/03/25 03:02:54;;;;;;;;;;;;;;;;;;4996255;28;19924;-67
2024/03/25 03:05:23;;;;;;;;;;;;;;;;;;4996713;28;19917;-67
2024/03/25 03:07:48;;;;;;;;;;;;;;;;;;4998687;28;20132;-67
2024/03/25 03:10:18;;;;;;;;;;;;;;;;;;5011667;28;20384;-66
2024/03/25 03:12:47;;;;;;;;;;;;;;;;;;5014484;28;19921;-65
2024/03/25 03:15:15;;;;;;;;;;;;;;;;;;4990169;28;19976;-67
2024/03/25 03:17:40;;;;;;;;;;;;;;;;;;4990872;28;19922;-67
2024/03/25 03:20:09;;;;;;;;;;;;;;;;;;5000005;28;19929;-68
2024/03/25 03:22:37;;;;;;;;;;;;;;;;;;5003724;28;19917;-67
2024/03/25 03:25:03;;;;;;;;;;;;;;;;;;5013769;28;19971;-67
2024/03/25 03:27:28;;;;;;;;;;;;;;;;;;4984946;28;19999;-67
2024/03/25 03:29:54;;;;;;;;;;;;;;;;;;4990710;28;20452;-67
2024/03/25 03:32:19;;;;;;;;;;;;;;;;;;4979321;28;20438;-67
2024/03/25 03:34:47;;;;;;;;;;;;;;;;;;5009091;28;19985;-67
2024/03/25 03:37:12;;;;;;;;;;;;;;;;;;5008737;28;20550;-66
2024/03/25 03:39:37;;;;;;;;;;;;;;;;;;5008245;28;20479;-66
2024/03/25 03:42:05;;;;;;;;;;;;;;;;;;4990011;28;20479;-66
2024/03/25 03:44:33;;;;;;;;;;;;;;;;;;5007148;28;19969;-66
2024/03/25 03:46:58;;;;;;;;;;;;;;;;;;4994273;28;19975;-66
2024/03/25 03:49:26;;;;;;;;;;;;;;;;;;5008940;28;19972;-66
2024/03/25 03:51:52;;;;;;;;;;;;;;;;;;5005999;28;19917;-66
2024/03/25 03:54:20;;;;;;;;;;;;;;;;;;5009899;28;20008;-66
2024/03/25 03:56:47;;;;;;;;;;;;;;;;;;4991005;28;20036;-66
2024/03/25 03:59:16;;;;;;;;;;;;;;;;;;5008420;28;19933;-66
2024/03/25 04:01:41;;;;;;;;;;;;;;;;;;5009456;28;20416;-67
2024/03/25 04:04:09;;;;;;;;;;;;;;;;;;4997674;28;19917;-66
2024/03/25 04:06:35;;;;;;;;;;;;;;;;;;4977401;28;20353;-66
2024/03/25 04:09:05;;;;;;;;;;;;;;;;;;4992226;28;20716;-66
2024/03/25 04:11:33;;;;;;;;;;;;;;;;;;5010165;28;19917;-68
2024/03/25 04:14:00;;;;;;;;;;;;;;;;;;4970598;28;20296;-67
2024/03/25 04:16:26;;;;;;;;;;;;;;;;;;5010436;28;19921;-65
2024/03/25 04:18:54;;;;;;;;;;;;;;;;;;4991960;28;19917;-66
2024/03/25 04:21:19;;;;;;;;;;;;;;;;;;4990582;28;19987;-66
2024/03/25 04:23:44;;;;;;;;;;;;;;;;;;5013102;28;20464;-66
2024/03/25 04:26:10;;;;;;;;;;;;;;;;;;5009845;28;20369;-66
2024/03/25 04:28:35;;;;;;;;;;;;;;;;;;5012255;28;19971;-66
2024/03/25 04:31:02;;;;;;;;;;;;;;;;;;5008536;28;19921;-66
2024/03/25 04:33:28;;;;;;;;;;;;;;;;;;4980897;28;19925;-66
2024/03/25 04:35:56;;;;;;;;;;;;;;;;;;4990685;28;19925;-66
2024/03/25 04:38:21;;;;;;;;;;;;;;;;;;4990176;28;19920;-66
2024/03/25 04:40:49;;;;;;;;;;;;;;;;;;4993811;28;20452;-65
2024/03/25 04:43:17;;;;;;;;;;;;;;;;;;4964659;28;19921;-66
2024/03/25 04:45:43;;;;;;;;;;;;;;;;;;4989063;28;19917;-65
2024/03/25 04:48:08;;;;;;;;;;;;;;;;;;4998027;28;19927;-65
2024/03/25 04:50:36;;;;;;;;;;;;;;;;;;4973537;28;19917;-67
2024/03/25 04:53:01;;;;;;;;;;;;;;;;;;4998529;28;20276;-66
2024/03/25 04:55:29;;;;;;;;;;;;;;;;;;4972891;28;20393;-66
2024/03/25 04:57:56;;;;;;;;;;;;;;;;;;4978666;28;19929;-67
2024/03/25 05:00:25;;;;;;;;;;;;;;;;;;4994749;28;20377;-65
2024/03/25 05:02:50;;;;;;;;;;;;;;;;;;4963608;28;20013;-66
2024/03/25 05:05:15;;;;;;;;;;;;;;;;;;4975792;28;19925;-66
2024/03/25 05:07:44;;;;;;;;;;;;;;;;;;4997183;28;19921;-66
2024/03/25 05:10:10;;;;;;;;;;;;;;;;;;4976709;28;20391;-65
2024/03/25 05:12:35;;;;;;;;;;;;;;;;;;4996424;28;19999;-65
2024/03/25 05:15:00;;;;;;;;;;;;;;;;;;4975277;28;19925;-65
2024/03/25 05:17:28;;;;;;;;;;;;;;;;;;4961404;28;19917;-65
2024/03/25 05:19:56;;;;;;;;;;;;;;;;;;4976356;28;20350;-67
2024/03/25 05:22:24;;;;;;;;;;;;;;;;;;4995632;28;19917;-65
2024/03/25 05:24:50;;;;;;;;;;;;;;;;;;4978466;28;19941;-65
2024/03/25 05:27:18;;;;;;;;;;;;;;;;;;4972845;28;20445;-65
2024/03/25 05:29:43;;;;;;;;;;;;;;;;;;4993226;28;19921;-65
2024/03/25 05:32:08;;;;;;;;;;;;;;;;;;4996197;28;19976;-65
2024/03/25 05:34:33;;;;;;;;;;;;;;;;;;4996776;28;19980;-66
2024/03/25 05:37:01;;;;;;;;;;;;;;;;;;4967415;28;19922;-66
2024/03/25 05:39:29;;;;;;;;;;;;;;;;;;4996605;28;19960;-65
2024/03/25 05:41:54;;;;;;;;;;;;;;;;;;4974247;28;20017;-65
2024/03/25 05:44:20;;;;;;;;;;;;;;;;;;4996827;28;19928;-66
2024/03/25 05:46:45;;;;;;;;;;;;;;;;;;4997741;28;19921;-66
2024/03/25 05:49:13;;;;;;;;;;;;;;;;;;4963031;28;19917;-66
2024/03/25 05:51:41;;;;;;;;;;;;;;;;;;4975957;28;20059;-66
2024/03/25 05:54:06;;;;;;;;;;;;;;;;;;4994581;28;19961;-66
2024/03/25 05:56:31;;;;;;;;;;;;;;;;;;4960042;28;19960;-66
2024/03/25 05:58:57;;;;;;;;;;;;;;;;;;4975925;28;19965;-66
2024/03/25 06:01:22;;;;;;;;;;;;;;;;;;4978301;28;20004;-66
2024/03/25 06:03:50;;;;;;;;;;;;;;;;;;4995176;28;20004;-64
2024/03/25 06:06:18;;;;;;;;;;;;;;;;;;4977171;28;19918;-65
2024/03/25 06:08:46;;;;;;;;;;;;;;;;;;4994808;28;19921;-66
2024/03/25 06:11:11;;;;;;;;;;;;;;;;;;4978846;28;19921;-65
2024/03/25 06:13:39;;;;;;;;;;;;;;;;;;4996059;28;20008;-65
2024/03/25 06:16:05;;;;;;;;;;;;;;;;;;4995439;28;19975;-66
2024/03/25 06:18:32;;;;;;;;;;;;;;;;;;4990870;28;19960;-66
2024/03/25 06:21:00;;;;;;;;;;;;;;;;;;4973286;28;20020;-65
2024/03/25 06:23:25;;;;;;;;;;;;;;;;;;4995247;28;19930;-65
2024/03/25 06:25:50;;;;;;;;;;;;;;;;;;4960575;28;19921;-66
2024/03/25 06:28:15;;;;;;;;;;;;;;;;;;4990156;28;20338;-66
2024/03/25 06:36:12;;;;;;;;;;;;;;;;;;5015054;28;19925;-66
2024/03/25 06:38:39;;;;;;;;;;;;;;;;;;5015802;28;19921;-65
2024/03/25 06:41:07;;;;;;;;;;;;;;;;;;5013561;28;19924;-65
2024/03/25 06:43:32;;;;;;;;;;;;;;;;;;4992152;28;19931;-66
2024/03/25 06:45:58;;;;;;;;;;;;;;;;;;4999633;28;19932;-65
2024/03/25 06:48:26;;;;;;;;;;;;;;;;;;4994301;28;19923;-65
2024/03/25 06:50:54;;;;;;;;;;;;;;;;;;4980505;28;19917;-66
2024/03/25 06:53:22;;;;;;;;;;;;;;;;;;5013905;28;20388;-65
2024/03/25 06:55:47;;;;;;;;;;;;;;;;;;5014860;28;21636;-65
2024/03/25 06:58:15;;;;;;;;;;;;;;;;;;4995931;28;19921;-66
2024/03/25 07:00:43;;;;;;;;;;;;;;;;;;4976585;28;19917;-66
2024/03/25 07:03:11;;;;;;;;;;;;;;;;;;4991969;28;19914;-65
2024/03/25 07:05:39;;;;;;;;;;;;;;;;;;4978122;28;19968;-66
2024/03/25 07:08:06;;;;;;;;;;;;;;;;;;4996206;28;20622;-66
2024/03/25 07:10:32;;;;;;;;;;;;;;;;;;4993545;28;20524;-65
2024/03/25 07:12:57;;;;;;;;;;;;;;;;;;5014470;28;19917;-65
2024/03/25 07:15:25;;;;;;;;;;;;;;;;;;4992178;28;20407;-67
2024/03/25 07:17:53;;;;;;;;;;;;;;;;;;5015102;28;19921;-66
2024/03/25 07:20:19;;;;;;;;;;;;;;;;;;5011792;28;19940;-66
2024/03/25 07:22:44;;;;;;;;;;;;;;;;;;4990262;28;19921;-66
2024/03/25 07:25:12;;;;;;;;;;;;;;;;;;5014977;28;20432;-66
2024/03/25 07:27:40;;;;;;;;;;;;;;;;;;5013415;28;19928;-65
2024/03/25 07:30:06;;;;;;;;;;;;;;;;;;5014107;28;19991;-67
2024/03/25 07:32:34;;;;;;;;;;;;;;;;;;5013022;28;20172;-66
2024/03/25 07:35:04;;;;;;;;;;;;;;;;;;4994088;28;20850;-67
2024/03/25 07:37:32;;;;;;;;;;;;;;;;;;5007116;28;19917;-67
2024/03/25 07:39:57;;;;;;;;;;;;;;;;;;5015003;28;19924;-66
2024/03/25 07:42:23;;;;;;;;;;;;;;;;;;4981137;28;19971;-66
2024/03/25 07:44:48;;;;;;;;;;;;;;;;;;5011076;28;19921;-67
2024/03/25 07:47:13;;;;;;;;;;;;;;;;;;4992578;28;20047;-67
2024/03/25 07:49:39;;;;;;;;;;;;;;;;;;5014606;28;20359;-66
2024/03/25 07:52:05;;;;;;;;;;;;;;;;;;4979162;28;19917;-66
2024/03/25 07:54:30;;;;;;;;;;;;;;;;;;5016635;28;19944;-66
2024/03/25 07:56:58;;;;;;;;;;;;;;;;;;5018678;28;19999;-65
2024/03/25 07:59:25;;;;;;;;;;;;;;;;;;5017620;28;20040;-66
2024/03/25 08:01:52;;;;;;;;;;;;;;;;;;5017134;28;19936;-67
2024/03/25 08:04:18;;;;;;;;;;;;;;;;;;5018408;28;20004;-66
2024/03/25 08:06:43;;;;;;;;;;;;;;;;;;5017373;28;19917;-66
2024/03/25 08:09:13;;;;;;;;;;;;;;;;;;5011544;28;19924;-65
2024/03/25 08:11:43;;;;;;;;;;;;;;;;;;5010440;28;20056;-66
2024/03/25 08:14:10;;;;;;;;;;;;;;;;;;5016329;28;20459;-67
2024/03/25 08:16:36;;;;;;;;;;;;;;;;;;4986770;28;20468;-66
2024/03/25 08:19:03;;;;;;;;;;;;;;;;;;4997991;28;19921;-66
2024/03/25 08:21:31;;;;;;;;;;;;;;;;;;5017720;28;20424;-66
2024/03/25 08:23:56;;;;;;;;;;;;;;;;;;5004814;28;19916;-66
2024/03/25 08:26:24;;;;;;;;;;;;;;;;;;5015607;28;20395;-66
2024/03/25 08:28:49;;;;;;;;;;;;;;;;;;4996682;28;19928;-66
2024/03/25 08:31:18;;;;;;;;;;;;;;;;;;4992905;28;20475;-66
2024/03/25 08:33:43;;;;;;;;;;;;;;;;;;4989239;28;20040;-66
2024/03/25 08:36:11;;;;;;;;;;;;;;;;;;5016520;28;20625;-66
2024/03/25 08:38:39;;;;;;;;;;;;;;;;;;5016176;28;20051;-66
2024/03/25 08:41:04;;;;;;;;;;;;;;;;;;4995366;28;19924;-66
2024/03/25 08:43:31;;;;;;;;;;;;;;;;;;5016389;28;19960;-66
2024/03/25 08:45:57;;;;;;;;;;;;;;;;;;5015161;28;19917;-66
2024/03/25 08:48:23;;;;;;;;;;;;;;;;;;5014916;28;20307;-71
2024/03/25 08:50:48;;;;;;;;;;;;;;;;;;4983960;28;19944;-67
2024/03/25 08:53:13;;;;;;;;;;;;;;;;;;4999568;28;20113;-66
2024/03/25 08:55:39;;;;;;;;;;;;;;;;;;5015581;28;20383;-66
2024/03/25 08:58:06;;;;;;;;;;;;;;;;;;4998116;28;19972;-66
2024/03/25 09:00:32;;;;;;;;;;;;;;;;;;5015277;28;20311;-66
2024/03/25 09:02:57;;;;;;;;;;;;;;;;;;4992535;28;19916;-66
2024/03/25 09:05:27;;;;;;;;;;;;;;;;;;4997725;28;20400;-67
2024/03/25 09:07:53;;;;;;;;;;;;;;;;;;5016296;28;20312;-66
2024/03/25 09:13:03;;;;;;;;;;;;;;;;;;5017250;28;19917;-65
2024/03/25 09:15:31;;;;;;;;;;;;;;;;;;5008588;28;20470;-68
2024/03/25 09:17:56;;;;;;;;;;;;;;;;;;4999736;28;19925;-68
2024/03/25 09:20:26;;;;;;;;;;;;;;;;;;5009088;28;19925;-67
2024/03/25 09:22:51;;;;;;;;;;;;;;;;;;5014779;28;20291;-68
2024/03/25 09:25:16;;;;;;;;;;;;;;;;;;4995470;28;20115;-66
2024/03/25 09:27:44;;;;;;;;;;;;;;;;;;5014960;28;19991;-65
2024/03/25 09:30:13;;;;;;;;;;;;;;;;;;4999389;28;20377;-67
2024/03/25 09:32:42;;;;;;;;;;;;;;;;;;5012857;28;19999;-66
2024/03/25 09:35:10;;;;;;;;;;;;;;;;;;4992662;28;19947;-67
2024/03/25 09:37:38;;;;;;;;;;;;;;;;;;5015795;28;20399;-66
2024/03/25 09:40:05;;;;;;;;;;;;;;;;;;5014727;28;20008;-66
2024/03/25 09:42:34;;;;;;;;;;;;;;;;;;5001929;28;19921;-66
2024/03/25 09:45:02;;;;;;;;;;;;;;;;;;4993221;28;19960;-67
2024/03/25 09:47:30;;;;;;;;;;;;;;;;;;4980060;28;20306;-68
2024/03/25 09:49:55;;;;;;;;;;;;;;;;;;4997728;28;19921;-65
2024/03/25 09:52:23;;;;;;;;;;;;;;;;;;4979941;28;20024;-66
2024/03/25 09:54:49;;;;;;;;;;;;;;;;;;5014032;28;20426;-66
2024/03/25 09:57:17;;;;;;;;;;;;;;;;;;5017502;28;19917;-67
2024/03/25 09:59:42;;;;;;;;;;;;;;;;;;5013349;28;20787;-67
2024/03/25 10:02:09;;;;;;;;;;;;;;;;;;5016467;28;20408;-67
2024/03/25 10:04:35;;;;;;;;;;;;;;;;;;4996985;28;20312;-67
2024/03/25 10:07:03;;;;;;;;;;;;;;;;;;4995356;28;20289;-66
2024/03/25 10:09:29;;;;;;;;;;;;;;;;;;4981398;28;19928;-67
2024/03/25 10:11:57;;;;;;;;;;;;;;;;;;5001702;28;19917;-66
2024/03/25 10:14:22;;;;;;;;;;;;;;;;;;4996686;28;20544;-67
2024/03/25 10:16:47;;;;;;;;;;;;;;;;;;5015450;28;19917;-68
2024/03/25 10:19:12;;;;;;;;;;;;;;;;;;4997600;28;19917;-68
2024/03/25 10:21:38;;;;;;;;;;;;;;;;;;5004619;28;19923;-67
2024/03/25 10:24:06;;;;;;;;;;;;;;;;;;4996655;28;20000;-68
2024/03/25 10:26:31;;;;;;;;;;;;;;;;;;4996238;28;19958;-67
2024/03/25 10:28:59;;;;;;;;;;;;;;;;;;5013335;28;20204;-68
2024/03/25 10:31:25;;;;;;;;;;;;;;;;;;4996156;28;20308;-68
2024/03/25 10:33:50;;;;;;;;;;;;;;;;;;5014966;28;19991;-68
2024/03/25 10:36:15;;;;;;;;;;;;;;;;;;4994270;28;19978;-69
2024/03/25 10:38:40;;;;;;;;;;;;;;;;;;5015385;28;19917;-68
2024/03/25 10:41:06;;;;;;;;;;;;;;;;;;4993136;28;19970;-68
2024/03/25 10:43:33;;;;;;;;;;;;;;;;;;4996032;28;19921;-67
2024/03/25 10:45:59;;;;;;;;;;;;;;;;;;4979214;28;19924;-67
2024/03/25 10:48:24;;;;;;;;;;;;;;;;;;5012817;28;19918;-67
2024/03/25 10:50:49;;;;;;;;;;;;;;;;;;5013642;28;19921;-67
2024/03/25 10:53:14;;;;;;;;;;;;;;;;;;5000258;28;19921;-66
2024/03/25 10:55:42;;;;;;;;;;;;;;;;;;5013068;28;19964;-67
2024/03/25 10:58:07;;;;;;;;;;;;;;;;;;5015317;28;19921;-68
2024/03/25 11:00:35;;;;;;;;;;;;;;;;;;4994058;28;19963;-67
2024/03/25 11:03:03;;;;;;;;;;;;;;;;;;5013941;28;19921;-67
2024/03/25 11:05:28;;;;;;;;;;;;;;;;;;5014961;28;19921;-67
2024/03/25 11:07:53;;;;;;;;;;;;;;;;;;4995932;28;19944;-67
2024/03/25 11:10:22;;;;;;;;;;;;;;;;;;4997264;28;19917;-67
2024/03/25 11:12:47;;;;;;;;;;;;;;;;;;5015056;28;19961;-67
2024/03/25 11:15:15;;;;;;;;;;;;;;;;;;5010239;28;19925;-67
2024/03/25 11:17:43;;;;;;;;;;;;;;;;;;5016116;28;19917;-68
2024/03/25 11:20:09;;;;;;;;;;;;;;;;;;5011998;28;20067;-67
2024/03/25 11:22:38;;;;;;;;;;;;;;;;;;4998892;28;19928;-67
2024/03/25 11:25:05;;;;;;;;;;;;;;;;;;4995736;28;20284;-66
2024/03/25 11:27:31;;;;;;;;;;;;;;;;;;4995001;28;20414;-68
2024/03/25 11:29:56;;;;;;;;;;;;;;;;;;5013815;28;19917;-68
2024/03/25 11:32:24;;;;;;;;;;;;;;;;;;4995860;28;19917;-69
2024/03/25 11:34:54;;;;;;;;;;;;;;;;;;5016217;28;19929;-68
2024/03/25 11:37:19;;;;;;;;;;;;;;;;;;5014285;28;19917;-69
2024/03/25 11:39:47;;;;;;;;;;;;;;;;;;5014242;28;19921;-68
2024/03/25 11:42:13;;;;;;;;;;;;;;;;;;4992158;28;19975;-67
2024/03/25 11:44:43;;;;;;;;;;;;;;;;;;4994848;28;19917;-68
2024/03/25 11:47:09;;;;;;;;;;;;;;;;;;4989511;28;19964;-68
2024/03/25 11:49:37;;;;;;;;;;;;;;;;;;5015042;28;20376;-68
2024/03/25 11:52:05;;;;;;;;;;;;;;;;;;5012263;28;19922;-68
2024/03/25 11:54:33;;;;;;;;;;;;;;;;;;5002209;28;19921;-69
2024/03/25 11:56:58;;;;;;;;;;;;;;;;;;5012960;28;19956;-69
2024/03/25 11:59:24;;;;;;;;;;;;;;;;;;4997800;28;20379;-68
2024/03/25 12:01:54;;;;;;;;;;;;;;;;;;4995286;28;20484;-68
2024/03/25 12:04:22;;;;;;;;;;;;;;;;;;5012160;28;19921;-68
2024/03/25 12:06:52;;;;;;;;;;;;;;;;;;5014317;28;19921;-68
2024/03/25 12:12:01;;;;;;;;;;;;;;;;;;5013521;28;19920;-68
2024/03/25 12:14:29;;;;;;;;;;;;;;;;;;4992999;28;20716;-67
2024/03/25 12:16:55;;;;;;;;;;;;;;;;;;5008563;28;19968;-67
2024/03/25 12:19:20;;;;;;;;;;;;;;;;;;5006420;28;20292;-68
2024/03/25 12:21:50;;;;;;;;;;;;;;;;;;5014879;28;19917;-68
2024/03/25 12:24:16;;;;;;;;;;;;;;;;;;5013295;28;19921;-68
2024/03/25 12:26:43;;;;;;;;;;;;;;;;;;5003401;28;19921;-68
2024/03/25 12:29:09;;;;;;;;;;;;;;;;;;5010611;28;20223;-69
2024/03/25 12:31:37;;;;;;;;;;;;;;;;;;4996355;28;20448;-67
2024/03/25 12:34:07;;;;;;;;;;;;;;;;;;4989763;28;20394;-69
2024/03/25 12:36:35;;;;;;;;;;;;;;;;;;5014574;28;19960;-68
2024/03/25 12:39:00;;;;;;;;;;;;;;;;;;5003333;28;19921;-68
2024/03/25 12:41:28;;;;;;;;;;;;;;;;;;4980800;28;19917;-68
2024/03/25 12:43:56;;;;;;;;;;;;;;;;;;5003579;28;19924;-68
2024/03/25 12:46:21;;;;;;;;;;;;;;;;;;5007440;28;21480;-68
2024/03/25 12:48:46;;;;;;;;;;;;;;;;;;5015097;28;19921;-69
2024/03/25 12:51:14;;;;;;;;;;;;;;;;;;5018083;28;19920;-68
2024/03/25 12:53:39;;;;;;;;;;;;;;;;;;5010173;28;19928;-67
2024/03/25 12:56:05;;;;;;;;;;;;;;;;;;4980518;28;20200;-68
2024/03/25 12:58:33;;;;;;;;;;;;;;;;;;5016764;28;19917;-68
2024/03/25 13:00:58;;;;;;;;;;;;;;;;;;5015712;28;20481;-67
2024/03/25 13:03:26;;;;;;;;;;;;;;;;;;5000156;28;19944;-68
2024/03/25 13:05:54;;;;;;;;;;;;;;;;;;5015928;28;19924;-67
2024/03/25 13:08:19;;;;;;;;;;;;;;;;;;5016177;28;20328;-68
2024/03/25 13:10:47;;;;;;;;;;;;;;;;;;4997003;28;19944;-67
2024/03/25 13:13:12;;;;;;;;;;;;;;;;;;5010597;28;19917;-68
2024/03/25 13:15:38;;;;;;;;;;;;;;;;;;4991363;28;19928;-67
2024/03/25 13:18:03;;;;;;;;;;;;;;;;;;4979327;28;20430;-68
2024/03/25 13:20:28;;;;;;;;;;;;;;;;;;4999822;28;20000;-69
2024/03/25 13:22:57;;;;;;;;;;;;;;;;;;4987569;28;19924;-68
2024/03/25 13:25:24;;;;;;;;;;;;;;;;;;5015800;28;19924;-68
2024/03/25 13:27:49;;;;;;;;;;;;;;;;;;4998214;28;19925;-68
2024/03/25 13:30:15;;;;;;;;;;;;;;;;;;5015846;28;19921;-69
2024/03/25 13:32:42;;;;;;;;;;;;;;;;;;5015606;28;19921;-68
2024/03/25 13:35:12;;;;;;;;;;;;;;;;;;4980254;28;20312;-68
2024/03/25 13:37:38;;;;;;;;;;;;;;;;;;4996099;28;19956;-68
2024/03/25 13:40:05;;;;;;;;;;;;;;;;;;4996569;28;19929;-67
2024/03/25 13:42:31;;;;;;;;;;;;;;;;;;4997211;28;19936;-68
2024/03/25 13:44:56;;;;;;;;;;;;;;;;;;4992263;28;20404;-68
2024/03/25 13:47:21;;;;;;;;;;;;;;;;;;4979829;28;19928;-69
2024/03/25 13:49:46;;;;;;;;;;;;;;;;;;5013000;28;19937;-68
2024/03/25 13:52:14;;;;;;;;;;;;;;;;;;4999804;28;19921;-68
2024/03/25 13:54:42;;;;;;;;;;;;;;;;;;4992184;28;19932;-68
2024/03/25 13:57:08;;;;;;;;;;;;;;;;;;4995940;28;19921;-69
2024/03/25 13:59:36;;;;;;;;;;;;;;;;;;4976884;28;19921;-68
2024/03/25 14:02:04;;;;;;;;;;;;;;;;;;4998865;28;19937;-68
2024/03/25 14:04:31;;;;;;;;;;;;;;;;;;4992972;28;20170;-67
2024/03/25 14:07:00;;;;;;;;;;;;;;;;;;4994812;28;20297;-68
2024/03/25 14:09:28;;;;;;;;;;;;;;;;;;4976869;28;20367;-69
2024/03/25 14:11:56;;;;;;;;;;;;;;;;;;4995929;28;19917;-68
2024/03/25 14:14:23;;;;;;;;;;;;;;;;;;4979063;28;20542;-69
2024/03/25 14:16:52;;;;;;;;;;;;;;;;;;5014989;28;19959;-68
2024/03/25 14:19:17;;;;;;;;;;;;;;;;;;4980913;28;20375;-69
2024/03/25 14:21:45;;;;;;;;;;;;;;;;;;4991400;28;19921;-69
2024/03/25 14:24:13;;;;;;;;;;;;;;;;;;5014772;28;19921;-69
2024/03/25 14:26:38;;;;;;;;;;;;;;;;;;4994686;28;19917;-68
2024/03/25 14:29:06;;;;;;;;;;;;;;;;;;4992244;28;19939;-68
2024/03/25 14:31:36;;;;;;;;;;;;;;;;;;5014620;28;19948;-69
2024/03/25 14:34:02;;;;;;;;;;;;;;;;;;5014878;28;19961;-67
2024/03/25 14:36:30;;;;;;;;;;;;;;;;;;4982334;28;19955;-68
2024/03/25 14:38:55;;;;;;;;;;;;;;;;;;5015032;28;19922;-68
2024/03/25 14:41:25;;;;;;;;;;;;;;;;;;5015703;28;19917;-69
2024/03/25 14:43:51;;;;;;;;;;;;;;;;;;5014454;28;20515;-68
2024/03/25 14:46:16;;;;;;;;;;;;;;;;;;4991463;28;19929;-67
2024/03/25 14:48:41;;;;;;;;;;;;;;;;;;5015142;28;19959;-68
2024/03/25 14:51:06;;;;;;;;;;;;;;;;;;4995723;28;19917;-68
2024/03/25 14:53:34;;;;;;;;;;;;;;;;;;4997529;28;19924;-68
2024/03/25 14:56:04;;;;;;;;;;;;;;;;;;5014886;28;19961;-67
2024/03/25 14:58:30;;;;;;;;;;;;;;;;;;4996034;28;20020;-68
2024/03/25 15:00:58;;;;;;;;;;;;;;;;;;4994919;28;20493;-70
2024/03/25 15:03:26;;;;;;;;;;;;;;;;;;5013279;28;21635;-69
2024/03/25 15:05:51;;;;;;;;;;;;;;;;;;4980816;28;19921;-69
2024/03/25 15:08:17;;;;;;;;;;;;;;;;;;4995893;28;20018;-69
2024/03/25 15:10:42;;;;;;;;;;;;;;;;;;4995962;28;19951;-68
2024/03/25 15:13:12;;;;;;;;;;;;;;;;;;4996388;28;19929;-68
2024/03/25 15:15:38;;;;;;;;;;;;;;;;;;4999757;28;20361;-69
2024/03/25 15:18:07;;;;;;;;;;;;;;;;;;4976159;28;19932;-69
2024/03/25 15:20:32;;;;;;;;;;;;;;;;;;4996414;28;20348;-69
2024/03/25 15:23:03;;;;;;;;;;;;;;;;;;5005902;28;20491;-70
2024/03/25 15:25:28;;;;;;;;;;;;;;;;;;4975468;28;19982;-69
2024/03/25 15:31:10;;;;;;;;;;;;;;;;;;5014851;28;19959;-70
2024/03/25 15:33:38;;;;;;;;;;;;;;;;;;4995592;28;19932;-69
2024/03/25 15:36:03;;;;;;;;;;;;;;;;;;4992871;28;21589;-69
2024/03/25 15:38:31;;;;;;;;;;;;;;;;;;4991410;28;19932;-68
2024/03/25 15:40:59;;;;;;;;;;;;;;;;;;4977803;28;20160;-68
2024/03/25 15:43:24;;;;;;;;;;;;;;;;;;4996650;28;21305;-69
2024/03/25 15:45:49;;;;;;;;;;;;;;;;;;4994711;28;20246;-69
2024/03/25 15:48:15;;;;;;;;;;;;;;;;;;5014674;28;19920;-70
2024/03/25 15:50:43;;;;;;;;;;;;;;;;;;5011842;28;20419;-70
2024/03/25 15:53:08;;;;;;;;;;;;;;;;;;4991618;28;19917;-69
2024/03/25 15:55:33;;;;;;;;;;;;;;;;;;5012813;28;19971;-69
2024/03/25 15:58:01;;;;;;;;;;;;;;;;;;4995537;28;20050;-70
2024/03/25 16:00:29;;;;;;;;;;;;;;;;;;5012512;28;19921;-70
2024/03/25 16:02:55;;;;;;;;;;;;;;;;;;4991850;28;19974;-69
2024/03/25 16:08:39;;;;;;;;;;;;;;;;;;5010757;28;19980;-69
2024/03/25 16:11:08;;;;;;;;;;;;;;;;;;4995975;28;20008;-69
2024/03/25 16:13:33;;;;;;;;;;;;;;;;;;5014198;28;19927;-69
2024/03/25 16:16:01;;;;;;;;;;;;;;;;;;5015590;28;20128;-70
2024/03/25 16:18:26;;;;;;;;;;;;;;;;;;4999572;28;20014;-68
2024/03/25 16:20:54;;;;;;;;;;;;;;;;;;4998632;28;19921;-69
2024/03/25 16:23:25;;;;;;;;;;;;;;;;;;5000003;28;19917;-71
2024/03/25 16:25:54;;;;;;;;;;;;;;;;;;4999508;28;19921;-70
2024/03/25 16:28:22;;;;;;;;;;;;;;;;;;4995484;28;20031;-70
2024/03/25 16:30:48;;;;;;;;;;;;;;;;;;4996786;28;20510;-70
2024/03/25 16:33:13;;;;;;;;;;;;;;;;;;4997811;28;19956;-69
2024/03/25 16:35:38;;;;;;;;;;;;;;;;;;4998275;28;20288;-69
2024/03/25 16:38:03;;;;;;;;;;;;;;;;;;4996126;28;19921;-68
2024/03/25 16:40:31;;;;;;;;;;;;;;;;;;5016863;28;20352;-68
2024/03/25 16:42:59;;;;;;;;;;;;;;;;;;5016877;28;19921;-69
2024/03/25 16:45:33;;;;;;;;;;;;;;;;;;4993228;28;20440;-68
2024/03/25 16:48:00;;;;;;;;;;;;;;;;;;4995921;28;20469;-69
2024/03/25 16:50:25;;;;;;;;;;;;;;;;;;5015776;28;19917;-69
2024/03/25 16:52:51;;;;;;;;;;;;;;;;;;4994911;28;19924;-68
2024/03/25 16:55:16;;;;;;;;;;;;;;;;;;5017747;28;19975;-70
2024/03/25 16:57:46;;;;;;;;;;;;;;;;;;4994681;28;19917;-71
2024/03/25 17:00:12;;;;;;;;;;;;;;;;;;5016981;28;19921;-69
2024/03/25 17:02:40;;;;;;;;;;;;;;;;;;4998150;28;19939;-69